Time;durP1;ratioP1;P1;durP2;ratioP2;P2;SDS_P1;SDS_P2;PMS_P1;PMS_P2;Temp;Humidity;BMP_temperature;BMP_pressure;BME280_temperature;BME280_humidity;BME280_pressure;Samples;Min_cycle;Max_cycle;Signal;HPM_P1;HPM_P2
2023/06/24 00:00:30;;;;;;;;;14.80;10.80;;;;;20.32;61.15;99468.38;4984414;28;8874;-91
2023/06/24 00:03:20;;;;;;;;;12.00;12.00;;;;;20.31;61.40;99480.84;4974361;28;8997;-86
2023/06/24 00:05:50;;;;;;;;;9.80;9.80;;;;;19.90;62.84;99492.25;4972324;28;9729;-85
2023/06/24 00:08:22;;;;;;;;;13.20;11.20;;;;;19.87;63.41;99485.25;4957508;28;8853;-87
2023/06/24 00:10:53;;;;;;;;;16.00;13.00;;;;;19.65;64.48;99467.06;4990006;28;8997;-86
2023/06/24 00:13:22;;;;;;;;;9.60;8.80;;;;;19.33;65.55;99466.28;5001363;28;8862;-84
2023/06/24 00:15:52;;;;;;;;;11.00;11.00;;;;;19.57;64.62;99474.63;4997238;28;9709;-86
2023/06/24 00:18:24;;;;;;;;;11.60;11.20;;;;;19.92;62.98;99476.16;4996351;28;9509;-88
2023/06/24 00:20:53;;;;;;;;;14.00;13.20;;;;;19.18;66.11;99480.47;4999344;28;8848;-86
2023/06/24 00:23:25;;;;;;;;;14.40;13.00;;;;;19.17;66.71;99479.63;5034581;28;8848;-85
2023/06/24 00:25:56;;;;;;;;;16.40;15.40;;;;;18.98;67.02;99474.50;5014538;28;8996;-88
2023/06/24 00:28:25;;;;;;;;;12.60;12.60;;;;;19.35;65.64;99474.16;4995390;28;8825;-86
2023/06/24 00:30:55;;;;;;;;;15.60;13.00;;;;;19.27;66.25;99482.59;5013879;28;9014;-86
2023/06/24 00:33:26;;;;;;;;;10.40;10.20;;;;;19.34;65.95;99497.28;4974526;28;8856;-85
2023/06/24 00:35:56;;;;;;;;;15.60;14.60;;;;;19.42;65.52;99502.19;4970407;28;8910;-85
2023/06/24 00:38:26;;;;;;;;;14.40;13.80;;;;;19.73;63.97;99495.09;4956934;28;8829;-87
2023/06/24 00:40:56;;;;;;;;;9.40;9.40;;;;;19.51;64.27;99501.63;4973508;28;8942;-85
2023/06/24 00:43:26;;;;;;;;;12.60;11.20;;;;;19.68;63.08;99496.19;4958024;28;8868;-85
2023/06/24 00:45:55;;;;;;;;;7.80;7.80;;;;;19.35;63.74;99493.69;4975255;28;8852;-85
2023/06/24 00:48:25;;;;;;;;;10.20;9.40;;;;;19.49;63.30;99488.38;4956483;28;8844;-87
2023/06/24 00:51:14;;;;;;;;;9.60;8.60;;;;;19.16;63.60;99487.69;4936456;29;8853;-86
2023/06/24 00:53:44;;;;;;;;;8.00;7.40;;;;;18.96;64.36;99484.38;4941557;28;9057;-84
2023/06/24 00:56:16;;;;;;;;;9.00;9.00;;;;;18.64;65.47;99500.31;4911101;29;8860;-85
2023/06/24 00:58:49;;;;;;;;;7.40;6.80;;;;;18.54;65.88;99499.13;4923933;29;8877;-83
2023/06/24 01:01:20;;;;;;;;;7.80;7.40;;;;;18.76;65.13;99504.09;4915663;29;8891;-85
2023/06/24 01:03:49;;;;;;;;;13.80;12.00;;;;;18.73;65.15;99507.78;4869695;29;8853;-85
2023/06/24 01:06:20;;;;;;;;;11.00;9.60;;;;;19.00;64.14;99493.06;4943766;29;8867;-84
2023/06/24 01:08:50;;;;;;;;;7.60;7.00;;;;;18.76;65.15;99506.75;4959573;28;8866;-85
2023/06/24 01:11:21;;;;;;;;;7.40;7.40;;;;;18.78;65.26;99504.00;4974128;28;8855;-85
2023/06/24 01:13:51;;;;;;;;;8.00;7.60;;;;;18.85;64.72;99487.63;4988478;28;8908;-85
2023/06/24 01:16:30;;;;;;;;;9.80;9.80;;;;;18.97;64.16;99478.13;4972168;28;8905;-85
2023/06/24 01:19:07;;;;;;;;;6.00;6.00;;;;;18.82;64.70;99473.63;4972779;28;8905;-86
2023/06/24 01:21:55;;;;;;;;;9.20;9.00;;;;;19.05;63.92;99483.00;4991082;28;8882;-84
2023/06/24 01:24:38;;;;;;;;;7.80;7.60;;;;;19.44;62.41;99473.63;4979123;28;8862;-84
2023/06/24 01:27:48;;;;;;;;;7.60;7.60;;;;;19.62;61.57;99458.38;4969502;28;8878;-83
2023/06/24 01:30:44;;;;;;;;;12.00;9.60;;;;;18.78;64.38;99456.09;4974801;28;8875;-86
2023/06/24 01:33:25;;;;;;;;;11.40;8.60;;;;;18.67;65.15;99464.69;5007274;28;8860;-86
2023/06/24 01:35:56;;;;;;;;;9.00;8.20;;;;;18.75;64.99;99467.78;5041062;28;8965;-84
2023/06/24 01:38:35;;;;;;;;;9.00;9.00;;;;;18.84;64.67;99477.94;5006663;28;8878;-86
2023/06/24 01:41:07;;;;;;;;;8.00;8.00;;;;;18.80;64.78;99468.41;5006389;28;8859;-83
2023/06/24 01:43:38;;;;;;;;;8.40;7.20;;;;;19.17;63.39;99460.13;4998223;28;8891;-84
2023/06/24 01:46:11;;;;;;;;;9.20;9.20;;;;;19.16;63.30;99458.38;4990556;28;8846;-82
2023/06/24 01:48:46;;;;;;;;;8.00;8.00;;;;;18.66;65.36;99452.31;5035956;28;8868;-85
2023/06/24 01:51:20;;;;;;;;;11.60;9.00;;;;;18.33;67.00;99453.25;4976841;28;8837;-85
2023/06/24 01:53:53;;;;;;;;;8.60;8.60;;;;;18.22;67.41;99456.47;5031471;28;9020;-86
2023/06/24 01:56:26;;;;;;;;;9.80;9.80;;;;;18.25;67.62;99463.44;5012397;28;8913;-85
2023/06/24 01:58:59;;;;;;;;;11.40;9.00;;;;;18.33;67.39;99463.91;4990231;28;8921;-87
2023/06/24 02:01:30;;;;;;;;;9.80;9.40;;;;;18.82;65.23;99466.53;4994560;28;8868;-84
2023/06/24 02:04:02;;;;;;;;;12.20;10.00;;;;;19.19;63.88;99471.53;4975212;28;8948;-86
2023/06/24 02:06:39;;;;;;;;;12.40;10.80;;;;;19.48;62.85;99480.47;4964737;28;8903;-85
2023/06/24 02:09:10;;;;;;;;;10.40;8.00;;;;;19.86;61.07;99464.91;4928783;28;9617;-84
2023/06/24 02:11:41;;;;;;;;;11.20;10.00;;;;;20.20;59.94;99456.59;4942958;28;8909;-85
2023/06/24 02:14:13;;;;;;;;;9.20;9.20;;;;;20.40;59.24;99461.56;4939818;28;9736;-86
2023/06/24 02:16:43;;;;;;;;;4.00;3.00;;;;;20.66;58.06;99449.22;4956616;28;8863;-87
2023/06/24 02:19:18;;;;;;;;;9.00;9.00;;;;;20.82;57.84;99433.09;4940478;28;8953;-87
2023/06/24 02:21:52;;;;;;;;;7.40;7.40;;;;;21.03;56.96;99435.31;4940092;28;8900;-85
2023/06/24 02:24:26;;;;;;;;;8.00;8.00;;;;;21.04;56.88;99424.50;4940199;28;8855;-87
2023/06/24 02:27:16;;;;;;;;;10.60;10.00;;;;;21.28;55.93;99418.50;4946983;28;8860;-86
2023/06/24 02:29:47;;;;;;;;;9.20;8.80;;;;;21.15;56.04;99404.25;4954821;28;8872;-88
2023/06/24 02:32:16;;;;;;;;;9.40;9.40;;;;;21.34;55.54;99411.88;4957862;28;8986;-85
2023/06/24 02:34:48;;;;;;;;;11.00;10.00;;;;;21.47;55.07;99422.59;4924673;28;8962;-85
2023/06/24 02:37:18;;;;;;;;;8.00;7.60;;;;;21.53;55.17;99431.03;4940480;28;9696;-86
2023/06/24 02:39:47;;;;;;;;;9.20;8.80;;;;;21.47;55.42;99423.44;4940992;28;8947;-88
2023/06/24 02:42:16;;;;;;;;;9.60;9.40;;;;;21.55;54.73;99420.25;4969263;28;8876;-88
2023/06/24 02:44:47;;;;;;;;;10.40;10.40;;;;;21.60;54.58;99404.78;4983428;28;8876;-88
2023/06/24 02:47:21;;;;;;;;;11.20;8.80;;;;;21.70;54.44;99415.69;5004051;28;8847;-86
2023/06/24 02:49:57;;;;;;;;;10.40;8.00;;;;;21.89;53.75;99409.91;5013982;28;8869;-85
2023/06/24 02:52:28;;;;;;;;;10.40;9.20;;;;;21.61;54.74;99401.97;4998204;28;8858;-85
2023/06/24 02:54:59;;;;;;;;;8.00;7.40;;;;;21.66;54.48;99388.28;5005231;28;8901;-84
2023/06/24 02:57:53;;;;;;;;;9.20;8.00;;;;;21.77;54.10;99379.53;4920873;29;8979;-82
2023/06/24 03:00:34;;;;;;;;;9.00;9.00;;;;;21.84;53.82;99389.69;4924154;29;8884;-84
2023/06/24 03:03:24;;;;;;;;;10.40;9.40;;;;;21.76;54.12;99397.38;4929576;29;8963;-85
2023/06/24 03:06:02;;;;;;;;;10.80;9.40;;;;;21.52;54.44;99399.94;4926096;29;8888;-87
2023/06/24 03:08:49;;;;;;;;;9.40;8.40;;;;;21.41;54.95;99402.47;4911863;29;8861;-86
2023/06/24 03:11:24;;;;;;;;;8.40;8.40;;;;;20.73;57.19;99390.94;4915574;29;8849;-85
2023/06/24 03:13:54;;;;;;;;;11.60;11.60;;;;;20.79;57.07;99379.84;4915277;29;8889;-84
2023/06/24 03:16:38;;;;;;;;;10.00;9.20;;;;;20.93;56.61;99384.28;4885369;29;8954;-85
2023/06/24 03:19:17;;;;;;;;;10.60;9.60;;;;;20.74;57.48;99389.97;4899056;29;8929;-85
2023/06/24 03:21:58;;;;;;;;;11.20;8.80;;;;;20.36;59.00;99387.97;4913578;29;8883;-83
2023/06/24 03:24:30;;;;;;;;;8.60;8.20;;;;;20.62;57.80;99385.44;4916852;29;8889;-85
2023/06/24 03:27:01;;;;;;;;;10.40;9.60;;;;;20.73;57.61;99385.59;4901771;29;8893;-84
2023/06/24 03:29:39;;;;;;;;;9.40;9.40;;;;;20.70;57.54;99384.94;4912382;29;8877;-85
2023/06/24 03:32:14;;;;;;;;;9.00;9.00;;;;;20.66;57.50;99382.47;4936991;29;8990;-87
2023/06/24 03:34:44;;;;;;;;;9.60;9.60;;;;;20.95;56.78;99378.84;4938554;28;8922;-84
2023/06/24 03:37:16;;;;;;;;;9.40;9.40;;;;;21.17;56.39;99388.97;4988997;28;8906;-87
2023/06/24 03:39:45;;;;;;;;;18.60;18.60;;;;;20.93;57.06;99386.97;4996719;28;9578;-86
2023/06/24 03:42:18;;;;;;;;;13.40;13.40;;;;;20.80;56.91;99388.72;4979962;28;8957;-85
2023/06/24 03:44:50;;;;;;;;;10.80;10.00;;;;;20.79;57.23;99384.34;4978623;28;8848;-87
2023/06/24 03:47:21;;;;;;;;;9.40;9.20;;;;;20.67;57.83;99389.53;4963802;28;8856;-85
2023/06/24 03:49:52;;;;;;;;;9.20;8.60;;;;;20.72;57.52;99388.38;4979816;28;8891;-87
2023/06/24 03:52:26;;;;;;;;;9.80;9.80;;;;;21.04;56.67;99395.13;4983007;28;8894;-86
2023/06/24 03:55:01;;;;;;;;;15.00;13.20;;;;;20.76;57.28;99397.88;4994069;28;8878;-86
2023/06/24 03:57:31;;;;;;;;;9.00;9.00;;;;;20.68;57.41;99395.72;4998750;28;8868;-86
2023/06/24 04:00:13;;;;;;;;;10.80;10.00;;;;;20.67;57.90;99402.88;5005139;28;8876;-84
2023/06/24 04:02:45;;;;;;;;;8.80;8.80;;;;;20.92;56.91;99401.28;4933573;28;8896;-87
2023/06/24 04:05:14;;;;;;;;;8.40;8.00;;;;;20.31;58.88;99405.25;4942169;28;8849;-87
2023/06/24 04:07:47;;;;;;;;;17.00;15.60;;;;;20.45;58.55;99390.06;4959590;28;8864;-87
2023/06/24 04:10:47;;;;;;;;;9.40;9.40;;;;;20.44;58.65;99406.19;4935645;29;9029;-87
2023/06/24 04:13:21;;;;;;;;;9.00;9.00;;;;;20.16;59.82;99418.59;4921607;29;8849;-86
2023/06/24 04:16:00;;;;;;;;;15.20;11.00;;;;;19.89;60.55;99432.69;4942639;29;8868;-86
2023/06/24 04:18:31;;;;;;;;;10.00;9.80;;;;;19.99;59.98;99429.44;4933140;29;8895;-84
2023/06/24 04:21:02;;;;;;;;;11.80;10.40;;;;;19.92;60.70;99428.97;4932090;29;8895;-87
2023/06/24 04:23:40;;;;;;;;;16.00;14.40;;;;;19.85;60.93;99428.50;4943193;29;8868;-85
2023/06/24 04:26:13;;;;;;;;;10.00;8.20;;;;;20.05;60.11;99429.94;4923038;29;8868;-87
2023/06/24 04:28:44;;;;;;;;;8.20;7.60;;;;;20.03;59.78;99439.84;4953561;29;8877;-85
2023/06/24 04:31:14;;;;;;;;;11.40;9.80;;;;;20.22;59.10;99444.91;4938304;29;8877;-86
2023/06/24 04:33:45;;;;;;;;;9.80;9.80;;;;;19.83;60.04;99451.72;4905611;29;8857;-86
2023/06/24 04:36:16;;;;;;;;;10.00;10.00;;;;;19.92;59.94;99454.81;4939182;28;8851;-87
2023/06/24 04:38:47;;;;;;;;;14.40;13.40;;;;;19.70;60.11;99448.94;4955855;28;8878;-88
2023/06/24 04:41:19;;;;;;;;;13.20;11.80;;;;;19.48;59.97;99456.47;4944443;29;8885;-85
2023/06/24 04:43:48;;;;;;;;;13.00;11.80;;;;;19.55;60.53;99465.88;4971402;28;8855;-86
2023/06/24 04:46:18;;;;;;;;;10.40;10.40;;;;;20.08;58.22;99455.56;4957418;28;8878;-88
2023/06/24 04:48:48;;;;;;;;;12.20;11.80;;;;;20.04;58.26;99454.88;4991935;28;8854;-86
2023/06/24 04:51:18;;;;;;;;;9.60;9.00;;;;;19.82;58.84;99457.16;4975242;28;9033;-86
2023/06/24 04:53:50;;;;;;;;;12.80;11.80;;;;;20.09;58.00;99452.81;4991981;28;8961;-85
2023/06/24 04:56:19;;;;;;;;;16.20;14.40;;;;;19.45;59.79;99467.34;4977094;28;8874;-86
2023/06/24 05:01:34;;;;;;;;;11.80;11.80;;;;;20.09;57.49;99474.16;4987218;28;8943;-88
2023/06/24 05:04:05;;;;;;;;;14.20;13.20;;;;;19.69;58.72;99484.59;4991092;28;8863;-87
2023/06/24 05:06:55;;;;;;;;;14.80;13.20;;;;;20.05;57.91;99480.63;4968361;28;8845;-86
2023/06/24 05:09:28;;;;;;;;;12.60;12.60;;;;;19.81;58.65;99493.66;4944296;28;8865;-87
2023/06/24 05:11:59;;;;;;;;;18.00;15.40;;;;;19.27;60.07;99490.59;4985734;28;8852;-86
2023/06/24 05:14:30;;;;;;;;;14.80;14.40;;;;;18.89;61.71;99491.88;5003518;28;8851;-86
2023/06/24 05:17:00;;;;;;;;;14.80;13.00;;;;;18.66;62.15;99501.09;4981620;28;8882;-86
2023/06/24 05:19:32;;;;;;;;;18.80;15.20;;;;;18.73;61.96;99498.97;4998848;28;8886;-85
2023/06/24 05:22:01;;;;;;;;;14.80;13.40;;;;;18.48;62.85;99487.00;5004333;28;8874;-85
2023/06/24 05:24:32;;;;;;;;;16.00;15.00;;;;;18.34;63.56;99502.84;5011730;28;8989;-84
2023/06/24 05:27:05;;;;;;;;;13.40;12.20;;;;;18.18;64.52;99508.16;5004643;28;8862;-87
2023/06/24 05:29:36;;;;;;;;;13.60;12.60;;;;;17.99;65.14;99502.91;5001142;28;8855;-87
2023/06/24 05:32:06;;;;;;;;;25.20;22.40;;;;;17.72;66.08;99507.84;4978634;28;8977;-86
2023/06/24 05:34:35;;;;;;;;;19.00;19.00;;;;;17.70;66.42;99499.09;5011890;28;9616;-88
2023/06/24 05:37:05;;;;;;;;;16.40;16.40;;;;;17.96;65.64;99501.25;4978826;28;8854;-86
2023/06/24 05:39:36;;;;;;;;;19.60;18.40;;;;;17.67;66.80;99504.59;5012097;28;8882;-87
2023/06/24 05:42:06;;;;;;;;;20.20;17.60;;;;;17.53;67.48;99510.56;5014125;28;9735;-84
2023/06/24 05:44:36;;;;;;;;;15.00;15.00;;;;;17.64;67.22;99524.19;4971911;28;8843;-84
2023/06/24 05:47:05;;;;;;;;;17.00;17.00;;;;;17.78;67.02;99515.53;4949383;28;8893;-84
2023/06/24 05:49:37;;;;;;;;;16.20;14.40;;;;;18.03;66.02;99511.59;4973373;28;8862;-87
2023/06/24 05:52:08;;;;;;;;;17.80;16.80;;;;;18.19;65.73;99522.31;4965794;28;8894;-86
2023/06/24 05:54:40;;;;;;;;;19.40;18.00;;;;;18.19;65.71;99516.97;4953203;28;8839;-88
2023/06/24 05:57:10;;;;;;;;;18.40;17.20;;;;;18.25;65.82;99516.66;4920051;28;8847;-88
2023/06/24 05:59:40;;;;;;;;;22.40;20.00;;;;;18.48;64.58;99513.63;4930486;28;8847;-87
2023/06/24 06:02:09;;;;;;;;;20.40;18.80;;;;;18.49;64.65;99520.66;4965055;28;8852;-87
2023/06/24 06:04:42;;;;;;;;;19.80;19.00;;;;;18.80;63.64;99531.44;4996183;28;9603;-87
2023/06/24 06:07:15;;;;;;;;;17.20;16.60;;;;;18.89;63.56;99536.28;4978044;28;8887;-87
2023/06/24 06:09:46;;;;;;;;;18.20;15.00;;;;;19.15;62.62;99524.16;4992890;28;8873;-90
2023/06/24 06:12:17;;;;;;;;;17.60;17.20;;;;;19.25;62.04;99524.47;4978344;28;8857;-88
2023/06/24 06:14:56;;;;;;;;;16.00;15.60;;;;;19.06;63.18;99522.84;4977369;28;8873;-90
2023/06/24 06:17:25;;;;;;;;;17.80;16.60;;;;;18.86;64.31;99520.47;5011108;28;8954;-89
2023/06/24 06:19:56;;;;;;;;;17.80;17.80;;;;;19.22;62.72;99533.50;4994111;28;8884;-88
2023/06/24 06:22:45;;;;;;;;;21.40;17.80;;;;;19.31;62.56;99533.00;4957574;28;8850;-88
2023/06/24 06:25:19;;;;;;;;;20.00;18.00;;;;;19.55;62.30;99527.19;4928012;28;8883;-89
2023/06/24 06:27:49;;;;;;;;;17.80;17.20;;;;;19.55;62.13;99535.19;4958997;28;8847;-87
2023/06/24 06:30:20;;;;;;;;;17.40;16.40;;;;;19.85;61.34;99529.00;4922221;28;8869;-90
2023/06/24 06:32:50;;;;;;;;;16.40;15.80;;;;;19.65;61.56;99535.50;4922606;28;8857;-87
2023/06/24 06:35:22;;;;;;;;;15.40;14.20;;;;;19.71;61.70;99529.84;4952779;28;8841;-85
2023/06/24 06:37:52;;;;;;;;;18.60;16.80;;;;;19.79;61.45;99534.72;4936532;28;8853;-88
2023/06/24 06:40:35;;;;;;;;;17.20;15.60;;;;;19.63;61.91;99532.06;4921454;28;8896;-87
2023/06/24 06:43:05;;;;;;;;;17.00;16.20;;;;;19.54;62.26;99527.28;4941203;28;8868;-89
2023/06/24 06:45:34;;;;;;;;;15.60;15.60;;;;;19.87;60.69;99521.75;4954909;28;9069;-87
2023/06/24 06:48:08;;;;;;;;;16.60;16.60;;;;;19.91;60.52;99525.97;4987349;28;8979;-90
2023/06/24 06:50:56;;;;;;;;;15.00;15.00;;;;;19.77;60.29;99523.28;4966069;28;8859;-89
2023/06/24 06:53:27;;;;;;;;;19.20;17.40;;;;;19.90;60.11;99514.44;4974517;28;8863;-88
2023/06/24 06:56:26;;;;;;;;;16.20;15.00;;;;;19.46;61.50;99525.03;4980935;28;8873;-86
2023/06/24 06:58:56;;;;;;;;;15.40;15.40;;;;;19.50;61.17;99514.13;4991165;28;8880;-85
2023/06/24 07:02:08;;;;;;;;;16.60;15.80;;;;;19.57;61.45;99501.31;5015923;28;8870;-86
2023/06/24 07:04:38;;;;;;;;;14.80;14.00;;;;;20.23;59.17;99486.66;4924372;29;8859;-87
2023/06/24 07:07:11;;;;;;;;;14.60;11.20;;;;;20.54;57.85;99487.41;4937454;29;8926;-87
2023/06/24 07:09:44;;;;;;;;;14.60;14.60;;;;;20.47;58.61;99494.94;4928243;29;8921;-87
2023/06/24 07:12:26;;;;;;;;;13.40;13.40;;;;;21.15;57.37;99498.66;4917624;29;8879;-86
2023/06/24 07:15:18;;;;;;;;;18.00;14.80;;;;;21.70;56.19;99496.78;4866013;29;9138;-88
2023/06/24 07:17:50;;;;;;;;;17.80;15.00;;;;;22.19;54.59;99498.75;4863374;29;8882;-86
2023/06/24 07:20:19;;;;;;;;;13.60;13.60;;;;;22.55;53.00;99512.34;4863090;29;8890;-87
2023/06/24 07:22:50;;;;;;;;;15.40;14.60;;;;;22.92;52.07;99510.56;4848708;29;8900;-86
2023/06/24 07:25:21;;;;;;;;;15.40;14.60;;;;;22.97;51.49;99515.59;4861344;29;8907;-87
2023/06/24 07:27:53;;;;;;;;;15.40;15.20;;;;;23.36;50.56;99525.19;4879796;29;8873;-89
2023/06/24 07:30:22;;;;;;;;;14.40;13.60;;;;;23.54;49.49;99522.09;4864726;29;9695;-89
2023/06/24 07:33:12;;;;;;;;;16.80;14.20;;;;;23.60;49.23;99529.69;4878252;29;9012;-85
2023/06/24 07:35:41;;;;;;;;;14.80;14.00;;;;;23.77;48.63;99537.34;4902952;28;8873;-88
2023/06/24 07:38:12;;;;;;;;;17.80;17.00;;;;;23.98;48.59;99536.66;4958495;28;8970;-87
2023/06/24 07:40:44;;;;;;;;;14.60;14.60;;;;;23.85;48.04;99538.59;4957802;28;8895;-88
2023/06/24 07:43:18;;;;;;;;;16.80;15.20;;;;;23.78;48.17;99543.56;4926080;28;8896;-87
2023/06/24 07:46:08;;;;;;;;;15.20;14.20;;;;;23.96;47.49;99554.69;4941116;28;8959;-86
2023/06/24 07:48:38;;;;;;;;;15.40;14.80;;;;;23.86;47.72;99569.81;4919710;29;8862;-87
2023/06/24 07:51:08;;;;;;;;;14.40;14.40;;;;;24.06;47.58;99565.59;4888696;29;8886;-87
2023/06/24 07:53:38;;;;;;;;;18.40;17.60;;;;;23.99;47.12;99562.53;4944566;28;8911;-88
2023/06/24 07:56:11;;;;;;;;;15.40;15.20;;;;;24.05;46.97;99559.34;4955849;28;8888;-86
2023/06/24 07:58:43;;;;;;;;;17.40;17.40;;;;;24.04;46.87;99565.72;4971534;28;9621;-87
2023/06/24 08:01:12;;;;;;;;;18.40;18.00;;;;;22.86;49.81;99569.09;4958138;28;9007;-88
2023/06/24 08:03:43;;;;;;;;;18.40;16.80;;;;;23.31;48.75;99586.34;4943180;28;8871;-88
2023/06/24 08:06:13;;;;;;;;;21.60;19.00;;;;;23.75;47.74;99582.22;4980330;28;8927;-88
2023/06/24 08:08:43;;;;;;;;;17.60;15.20;;;;;24.02;47.24;99578.41;4979041;28;8892;-89
2023/06/24 08:11:16;;;;;;;;;18.40;18.40;;;;;24.02;46.74;99582.91;4971889;28;8979;-87
2023/06/24 08:14:15;;;;;;;;;14.00;13.20;;;;;23.32;48.03;99589.91;4997253;28;8838;-88
2023/06/24 08:16:44;;;;;;;;;15.60;15.60;;;;;22.47;50.14;99592.38;5029539;28;8968;-88
2023/06/24 08:19:15;;;;;;;;;17.80;16.20;;;;;21.95;50.93;99586.09;5017756;28;8888;-87
2023/06/24 08:21:44;;;;;;;;;20.00;20.00;;;;;21.48;53.10;99585.59;5020666;28;8932;-88
2023/06/24 08:24:14;;;;;;;;;25.00;23.80;;;;;21.63;53.09;99581.97;5015487;28;8865;-88
2023/06/24 08:26:44;;;;;;;;;20.20;19.20;;;;;21.56;53.14;99583.31;5025719;28;8882;-87
2023/06/24 08:29:17;;;;;;;;;25.60;22.00;;;;;22.21;52.08;99589.69;5016950;28;8867;-88
2023/06/24 08:31:46;;;;;;;;;21.00;17.00;;;;;22.64;50.49;99588.50;5014299;28;8878;-88
2023/06/24 08:34:16;;;;;;;;;15.60;15.00;;;;;23.03;49.79;99586.66;5028210;28;8860;-87
2023/06/24 08:36:45;;;;;;;;;13.80;13.80;;;;;23.26;49.10;99582.28;5061416;28;8861;-86
2023/06/24 08:39:16;;;;;;;;;16.20;15.80;;;;;23.49;48.06;99586.84;5003454;28;8848;-88
2023/06/24 08:41:45;;;;;;;;;14.40;14.20;;;;;23.82;47.37;99593.34;5018849;28;8854;-88
2023/06/24 08:44:16;;;;;;;;;15.80;14.20;;;;;23.90;47.06;99596.31;5014798;28;8870;-88
2023/06/24 08:46:46;;;;;;;;;14.60;14.60;;;;;24.01;46.75;99592.78;5018715;28;8878;-87
2023/06/24 08:49:31;;;;;;;;;16.40;14.40;;;;;24.37;45.92;99590.94;4998335;28;8878;-88
2023/06/24 08:52:03;;;;;;;;;15.80;15.80;;;;;24.32;46.05;99599.38;5027517;28;8870;-88
2023/06/24 08:54:36;;;;;;;;;15.40;15.20;;;;;24.40;46.20;99598.78;4998213;28;8867;-88
2023/06/24 08:57:07;;;;;;;;;17.40;17.40;;;;;24.43;46.09;99592.31;4994172;28;8874;-86
2023/06/24 08:59:39;;;;;;;;;14.20;13.00;;;;;23.88;46.81;99600.91;5068163;28;8888;-84
2023/06/24 09:02:11;;;;;;;;;19.20;17.40;;;;;24.22;46.27;99600.22;5029704;28;8874;-90
2023/06/24 09:04:41;;;;;;;;;20.60;19.20;;;;;24.08;46.24;99602.09;5055370;28;8852;-88
2023/06/24 09:07:13;;;;;;;;;18.60;16.40;;;;;24.44;45.17;99615.53;5037647;28;8938;-88
2023/06/24 09:09:44;;;;;;;;;17.20;17.20;;;;;24.32;45.34;99614.63;5001025;28;8876;-88
2023/06/24 09:12:16;;;;;;;;;14.80;14.80;;;;;24.33;45.43;99625.25;5040345;28;8865;-88
2023/06/24 09:14:52;;;;;;;;;17.80;17.60;;;;;23.62;46.97;99637.78;5053381;28;8875;-90
2023/06/24 09:17:22;;;;;;;;;19.80;19.80;;;;;22.77;49.62;99635.78;5051735;28;8879;-90
2023/06/24 09:19:52;;;;;;;;;24.20;23.80;;;;;22.74;50.04;99641.34;5003825;28;8848;-86
2023/06/24 09:22:21;;;;;;;;;21.20;19.60;;;;;21.96;52.60;99626.16;5040240;28;8852;-88
2023/06/24 09:24:51;;;;;;;;;17.40;17.40;;;;;22.69;50.61;99610.50;4993684;28;8876;-88
2023/06/24 09:27:21;;;;;;;;;18.20;18.00;;;;;22.58;50.18;99628.19;5044110;28;8995;-85
2023/06/24 09:29:56;;;;;;;;;19.40;19.40;;;;;22.16;51.83;99629.28;5004920;28;8999;-87
2023/06/24 09:32:31;;;;;;;;;22.40;21.40;;;;;22.54;51.06;99626.69;5046802;28;8848;-89
2023/06/24 09:35:06;;;;;;;;;17.80;16.80;;;;;22.86;50.68;99633.41;5042562;28;8950;-89
2023/06/24 09:37:40;;;;;;;;;19.00;19.00;;;;;22.63;52.39;99643.94;5062826;28;8930;-88
2023/06/24 09:41:03;;;;;;;;;18.00;18.00;;;;;22.78;53.45;99655.41;4986928;28;8862;-89
2023/06/24 09:43:44;;;;;;;;;28.00;26.20;;;;;22.10;56.64;99660.00;4956541;28;8875;-88
2023/06/24 09:46:19;;;;;;;;;22.40;21.00;;;;;21.81;59.13;99637.88;4967081;28;8877;-91
2023/06/24 09:48:49;;;;;;;;;24.20;23.80;;;;;20.57;63.25;99643.94;4962067;28;8953;-88
2023/06/24 09:51:19;;;;;;;;;27.20;26.60;;;;;20.75;68.43;99639.28;4972299;28;8874;-86
2023/06/24 09:53:49;;;;;;;;;20.40;20.40;;;;;20.71;64.38;99632.38;4973359;28;8973;-87
2023/06/24 09:56:42;;;;;;;;;24.20;23.80;;;;;19.92;66.60;99625.56;4938186;28;9015;-88
2023/06/24 09:59:19;;;;;;;;;26.60;24.60;;;;;19.63;67.87;99614.75;4936737;29;8929;-86
2023/06/24 10:01:58;;;;;;;;;32.20;26.40;;;;;20.09;69.10;99607.56;4932279;29;8881;-88
2023/06/24 10:04:30;;;;;;;;;29.00;27.80;;;;;20.02;69.54;99614.22;4904780;29;8965;-90
2023/06/24 10:07:05;;;;;;;;;23.00;22.00;;;;;20.35;68.36;99618.53;4891042;29;8869;-90
2023/06/24 10:09:58;;;;;;;;;31.20;29.80;;;;;20.76;70.04;99624.94;4918900;29;8878;-91
2023/06/24 10:12:31;;;;;;;;;30.60;27.80;;;;;20.99;70.08;99637.78;4886950;29;8959;-86
2023/06/24 10:15:42;;;;;;;;;26.00;25.40;;;;;21.39;70.84;99637.00;4884328;29;8872;-88
2023/06/24 10:18:56;;;;;;;;;32.00;31.00;;;;;21.60;66.95;99632.13;4884218;29;8935;-87
2023/06/24 10:21:47;;;;;;;;;30.40;28.40;;;;;21.82;66.34;99621.72;4866005;29;8863;-88
2023/06/24 10:24:32;;;;;;;;;28.80;28.80;;;;;22.00;68.80;99619.63;4888111;29;8863;-87
2023/06/24 10:27:46;;;;;;;;;35.40;28.80;;;;;22.01;68.31;99621.34;4877600;29;8985;-87
2023/06/24 10:39:57;;;;;;;;;31.80;30.60;;;;;22.06;65.15;99722.75;4885900;29;8914;-87
2023/06/24 10:42:41;;;;;;;;;35.75;31.00;;;;;22.15;65.71;99722.16;4881295;29;8858;-88
2023/06/24 10:45:21;;;;;;;;;33.80;31.00;;;;;22.18;65.85;99735.34;4850539;29;8878;-86
2023/06/24 10:47:56;;;;;;;;;34.25;31.00;;;;;22.08;65.55;99738.72;4871904;29;8882;-88
2023/06/24 10:50:39;;;;;;;;;43.25;37.50;;;;;21.99;65.26;99724.09;4851055;29;8897;-85
2023/06/24 10:53:30;;;;;;;;;33.50;31.50;;;;;21.87;65.47;99682.13;4869130;29;8937;-91
2023/06/24 10:56:03;;;;;;;;;36.75;33.00;;;;;21.96;67.21;99634.19;4850729;29;8966;-87
2023/06/24 11:02:15;;;;;;;;;38.25;34.00;;;;;21.19;66.33;99569.66;4896155;29;8864;-88
2023/06/24 11:05:14;;;;;;;;;38.25;33.00;;;;;21.28;67.18;99580.72;4884884;29;8854;-90
2023/06/24 11:08:07;;;;;;;;;41.00;36.50;;;;;21.54;65.85;99579.88;4882938;29;9030;-88
2023/06/24 11:11:23;;;;;;;;;32.75;29.50;;;;;21.20;65.12;99566.03;4855991;29;8877;-86
2023/06/24 11:14:29;;;;;;;;;35.25;32.75;;;;;20.64;67.23;99547.31;4817626;29;8864;-87
2023/06/24 11:17:52;;;;;;;;;42.75;36.75;;;;;19.97;69.41;99541.63;4851532;29;8878;-86
2023/06/24 11:20:30;;;;;;;;;31.80;30.20;;;;;19.86;68.80;99522.72;4854541;29;8871;-85
2023/06/24 11:25:53;;;;;;;;;32.20;30.60;;;;;20.05;70.68;99514.47;4855888;29;8900;-85
2023/06/24 11:28:25;;;;;;;;;38.00;34.00;;;;;20.54;70.43;99495.44;4860999;29;8958;-86
2023/06/24 11:30:55;;;;;;;;;36.25;33.00;;;;;19.73;72.87;99490.59;4825737;29;8901;-85
2023/06/24 11:33:29;;;;;;;;;42.25;35.50;;;;;20.37;72.13;99517.84;4806842;29;8938;-87
2023/06/24 11:35:59;;;;;;;;;34.00;32.60;;;;;20.76;71.06;99540.31;4774994;29;8876;-86
2023/06/24 11:38:32;;;;;;;;;40.33;34.00;;;;;21.10;70.35;99526.63;4813744;29;8884;-88
2023/06/24 11:41:05;;;;;;;;;38.00;34.00;;;;;21.37;68.78;99519.47;4843878;29;8912;-88
2023/06/24 11:43:39;;;;;;;;;41.25;36.25;;;;;21.64;69.33;99518.63;4878338;29;8922;-86
2023/06/24 11:46:10;;;;;;;;;36.75;34.00;;;;;21.80;68.83;99500.53;4877978;29;9033;-87
2023/06/24 11:48:42;;;;;;;;;38.25;33.50;;;;;21.98;67.81;99479.69;4910845;28;8891;-87
2023/06/24 11:51:18;;;;;;;;;33.75;32.25;;;;;22.25;68.63;99507.31;4954553;28;8964;-87
2023/06/24 11:53:51;;;;;;;;;39.00;35.25;;;;;22.23;66.03;99537.72;4983572;28;8867;-86
2023/06/24 11:56:35;;;;;;;;;40.75;35.50;;;;;22.36;65.28;99518.16;4957307;28;8909;-88
2023/06/24 11:59:07;;;;;;;;;47.00;39.50;;;;;22.09;65.92;99496.81;4989276;28;8867;-88
2023/06/24 12:04:22;;;;;;;;;32.25;31.00;;;;;22.37;65.88;99488.59;4981069;28;9232;-89
2023/06/24 12:06:52;;;;;;;;;40.25;34.00;;;;;22.23;63.66;99477.97;5033828;28;8946;-86
2023/06/24 12:09:22;;;;;;;;;33.50;31.00;;;;;21.98;64.92;99487.72;5001778;28;9740;-87
2023/06/24 12:12:12;;;;;;;;;37.00;32.75;;;;;22.39;66.13;99499.19;5001368;28;8858;-88
2023/06/24 12:14:44;;;;;;;;;35.75;33.75;;;;;22.69;67.31;99485.41;5020440;28;8898;-87
2023/06/24 12:17:33;;;;;;;;;39.50;34.00;;;;;22.93;65.42;99481.94;4970939;28;9019;-85
2023/06/24 12:20:04;;;;;;;;;31.75;30.50;;;;;23.27;64.98;99490.16;4983960;28;8880;-85
2023/06/24 12:22:34;;;;;;;;;33.60;31.40;;;;;23.31;63.07;99502.34;4962814;28;8908;-87
2023/06/24 12:25:04;;;;;;;;;29.60;29.20;;;;;23.51;63.40;99504.41;4928132;29;8877;-86
2023/06/24 12:27:35;;;;;;;;;32.75;30.50;;;;;23.52;61.59;99497.22;4870961;29;8869;-89